Time;durP1;ratioP1;P1;durP2;ratioP2;P2;SDS_P1;SDS_P2;PMS_P1;PMS_P2;Temp;Humidity;BMP_temperature;BMP_pressure;BME280_temperature;BME280_humidity;BME280_pressure;Samples;Min_cycle;Max_cycle;Signal;HPM_P1;HPM_P2
2023/06/07 00:00:40;;;;;;;5.50;3.08;;;20.30;99.90;;;;;;7402523;19;19935;-73
2023/06/07 00:03:09;;;;;;;4.45;2.45;;;20.20;99.90;;;;;;7402501;19;19936;-72
2023/06/07 00:05:37;;;;;;;5.82;2.67;;;20.20;99.90;;;;;;7402094;19;20363;-74
2023/06/07 00:08:04;;;;;;;5.78;2.75;;;20.30;99.90;;;;;;7403454;19;19948;-74
2023/06/07 00:10:30;;;;;;;5.13;2.33;;;20.20;99.90;;;;;;7396291;19;19946;-73
2023/06/07 00:12:56;;;;;;;4.50;2.60;;;20.20;99.90;;;;;;7402299;19;20430;-73
2023/06/07 00:15:21;;;;;;;5.95;3.50;;;20.20;99.90;;;;;;7399617;19;21278;-73
2023/06/07 00:17:47;;;;;;;5.28;2.90;;;20.30;99.90;;;;;;7403947;19;19919;-73
2023/06/07 00:20:14;;;;;;;6.47;2.75;;;20.20;99.90;;;;;;7395538;19;19926;-73
2023/06/07 00:22:40;;;;;;;5.68;2.85;;;20.20;99.70;;;;;;7396093;19;19967;-73
2023/06/07 00:25:08;;;;;;;4.95;2.70;;;20.30;99.80;;;;;;7396105;19;19918;-73
2023/06/07 00:27:34;;;;;;;6.68;2.53;;;20.20;99.60;;;;;;7372366;19;19918;-72
2023/06/07 00:30:00;;;;;;;4.65;2.70;;;20.20;99.60;;;;;;7403156;19;19914;-74
2023/06/07 00:32:27;;;;;;;5.40;2.83;;;20.20;99.80;;;;;;7369815;19;19934;-73
2023/06/07 00:34:53;;;;;;;5.45;2.53;;;20.10;99.80;;;;;;7404185;19;20027;-74
2023/06/07 00:37:19;;;;;;;5.72;2.45;;;20.10;99.80;;;;;;7399677;19;19950;-73
2023/06/07 00:39:45;;;;;;;8.88;2.95;;;20.10;99.70;;;;;;7404446;19;19914;-72
2023/06/07 00:42:11;;;;;;;6.80;3.10;;;20.10;99.80;;;;;;7402102;19;20255;-73
2023/06/07 00:44:37;;;;;;;7.38;2.63;;;20.10;99.80;;;;;;7401048;19;19929;-74
2023/06/07 00:47:04;;;;;;;4.30;2.58;;;20.00;99.60;;;;;;7400034;19;19914;-74
2023/06/07 00:49:30;;;;;;;6.38;2.80;;;20.10;99.70;;;;;;7403813;19;19922;-73
2023/06/07 00:51:57;;;;;;;4.65;2.70;;;20.10;99.60;;;;;;7403197;19;20344;-74
2023/06/07 00:54:23;;;;;;;5.35;2.72;;;20.10;99.20;;;;;;7401148;19;19939;-74
2023/06/07 00:56:50;;;;;;;7.72;2.95;;;20.10;98.90;;;;;;7400833;19;19974;-73
2023/06/07 00:59:20;;;;;;;5.45;3.05;;;20.20;98.80;;;;;;7398672;19;19906;-74
2023/06/07 01:01:51;;;;;;;5.55;3.10;;;20.20;98.90;;;;;;7398341;19;19983;-73
2023/06/07 01:04:20;;;;;;;8.00;3.65;;;20.10;98.80;;;;;;7394586;19;20633;-73
2023/06/07 01:06:46;;;;;;;5.97;2.92;;;20.10;98.80;;;;;;7399475;19;19922;-73
2023/06/07 01:09:14;;;;;;;5.70;2.83;;;20.10;98.60;;;;;;7399121;19;19915;-73
2023/06/07 01:11:42;;;;;;;5.35;3.58;;;20.10;98.70;;;;;;7402309;19;19923;-74
2023/06/07 01:14:11;;;;;;;7.97;4.25;;;20.10;98.80;;;;;;7401187;19;20319;-73
2023/06/07 01:16:39;;;;;;;7.03;3.60;;;20.00;98.90;;;;;;7402034;19;19921;-73
2023/06/07 01:19:11;;;;;;;7.32;3.42;;;20.00;99.20;;;;;;7399355;19;19927;-73
2023/06/07 01:21:38;;;;;;;6.82;2.95;;;19.90;99.40;;;;;;7400722;19;19955;-73
2023/06/07 01:24:04;;;;;;;10.40;4.13;;;19.90;99.80;;;;;;7400103;19;19925;-73
2023/06/07 01:26:31;;;;;;;7.32;3.78;;;19.80;99.90;;;;;;7400819;19;19918;-73
2023/06/07 01:29:05;;;;;;;5.88;3.15;;;19.80;99.90;;;;;;7401517;19;19922;-73
2023/06/07 01:31:35;;;;;;;7.68;3.75;;;19.80;99.90;;;;;;7401040;19;20407;-74
2023/06/07 01:34:03;;;;;;;6.65;3.55;;;19.80;99.90;;;;;;7403510;19;19918;-73
2023/06/07 01:36:31;;;;;;;10.88;3.95;;;19.70;99.90;;;;;;7403008;19;19919;-74
2023/06/07 01:39:00;;;;;;;7.75;3.45;;;19.70;99.90;;;;;;7402331;19;19926;-74
2023/06/07 01:41:28;;;;;;;8.88;3.85;;;19.80;99.90;;;;;;7399900;19;19931;-74
2023/06/07 01:43:55;;;;;;;7.30;3.13;;;19.80;99.90;;;;;;7400937;19;20415;-74
2023/06/07 01:46:21;;;;;;;5.07;3.08;;;19.80;99.90;;;;;;7398366;19;19945;-73
2023/06/07 01:48:48;;;;;;;8.55;3.67;;;19.80;99.90;;;;;;7399768;19;19915;-73
2023/06/07 01:51:15;;;;;;;7.53;3.80;;;19.80;99.90;;;;;;7397622;19;19915;-73
2023/06/07 01:53:41;;;;;;;6.53;3.20;;;19.80;99.90;;;;;;7401150;19;19918;-73
2023/06/07 01:56:30;;;;;;;10.30;3.40;;;19.80;99.90;;;;;;7399872;19;19918;-74
2023/06/07 01:59:21;;;;;;;8.82;3.70;;;19.70;99.90;;;;;;7399140;19;20808;-73
2023/06/07 02:02:03;;;;;;;7.28;3.60;;;19.70;99.90;;;;;;7399753;19;20450;-73
2023/06/07 02:04:32;;;;;;;7.63;3.53;;;19.70;99.90;;;;;;7401029;19;19914;-73
2023/06/07 02:07:05;;;;;;;6.47;3.30;;;19.80;99.90;;;;;;7401645;19;23998;-73
2023/06/07 02:09:35;;;;;;;;;;;19.70;99.90;;;;;;7401260;19;19915;-73
2023/06/07 02:12:02;;;;;;;7.35;3.50;;;19.70;99.90;;;;;;7398847;19;19922;-73
2023/06/07 02:14:29;;;;;;;6.38;3.50;;;19.70;99.90;;;;;;7399935;19;19979;-73
2023/06/07 02:16:55;;;;;;;6.57;2.95;;;19.70;99.90;;;;;;7398802;19;19914;-73
2023/06/07 02:19:21;;;;;;;7.28;2.90;;;19.70;99.90;;;;;;7396960;19;19982;-73
2023/06/07 02:21:47;;;;;;;7.40;3.42;;;19.70;99.90;;;;;;7398414;19;19930;-73
2023/06/07 02:24:13;;;;;;;6.25;3.28;;;19.70;99.90;;;;;;7397098;19;19910;-73
2023/06/07 02:26:40;;;;;;;7.85;3.05;;;19.70;99.90;;;;;;7398523;19;19914;-73
2023/06/07 02:29:05;;;;;;;5.80;3.35;;;19.60;99.90;;;;;;7399455;19;19918;-73
2023/06/07 02:31:31;;;;;;;6.30;3.00;;;19.70;99.90;;;;;;7398913;19;20429;-73
2023/06/07 02:33:57;;;;;;;8.60;3.30;;;19.60;99.90;;;;;;7401173;19;20705;-72
2023/06/07 02:36:25;;;;;;;7.30;2.63;;;19.70;99.90;;;;;;7396140;19;20282;-73
2023/06/07 02:38:51;;;;;;;6.25;3.20;;;19.70;99.90;;;;;;7400132;19;20633;-73
2023/06/07 02:41:17;;;;;;;7.25;3.75;;;19.70;99.90;;;;;;7398894;19;19918;-73
2023/06/07 02:43:44;;;;;;;5.95;3.03;;;19.70;99.90;;;;;;7398419;19;19923;-72
2023/06/07 02:46:11;;;;;;;6.30;2.92;;;19.70;99.90;;;;;;7398123;19;19922;-73
2023/06/07 02:48:38;;;;;;;8.40;3.03;;;19.70;99.90;;;;;;7399648;19;19927;-73
2023/06/07 02:51:03;;;;;;;5.95;3.28;;;19.70;99.90;;;;;;7396567;19;19915;-73
2023/06/07 02:53:30;;;;;;;6.38;3.50;;;19.60;99.90;;;;;;7400630;19;19938;-72
2023/06/07 02:55:56;;;;;;;6.10;3.35;;;19.60;99.90;;;;;;7397630;19;19922;-73
2023/06/07 02:58:22;;;;;;;5.97;3.45;;;19.60;99.90;;;;;;7396298;19;20362;-73
2023/06/07 03:00:54;;;;;;;6.63;3.20;;;19.60;99.90;;;;;;7398876;19;19923;-73
2023/06/07 03:03:20;;;;;;;5.43;2.80;;;19.60;99.90;;;;;;7398973;19;19911;-74
2023/06/07 03:05:49;;;;;;;5.88;2.92;;;19.70;99.90;;;;;;7395797;19;19935;-74
2023/06/07 03:08:16;;;;;;;6.88;3.20;;;19.70;99.90;;;;;;7396534;19;20284;-73
2023/06/07 03:10:41;;;;;;;5.13;2.65;;;19.70;99.90;;;;;;7398522;19;19918;-75
2023/06/07 03:13:07;;;;;;;7.15;2.67;;;19.70;99.90;;;;;;7398239;19;19919;-73
2023/06/07 03:15:33;;;;;;;5.25;2.88;;;19.60;99.90;;;;;;7397551;19;19914;-73
2023/06/07 03:17:59;;;;;;;5.32;2.92;;;19.60;99.90;;;;;;7397770;19;20379;-74
2023/06/07 03:20:28;;;;;;;6.53;3.40;;;19.60;99.90;;;;;;7397045;19;19974;-73
2023/06/07 03:22:54;;;;;;;6.75;3.33;;;19.60;99.90;;;;;;7396636;19;19933;-73
2023/06/07 03:25:20;;;;;;;5.60;3.17;;;19.60;99.90;;;;;;7402677;19;19914;-73
2023/06/07 03:27:46;;;;;;;6.65;2.90;;;19.60;99.90;;;;;;7403884;19;19915;-73
2023/06/07 03:30:12;;;;;;;5.50;3.13;;;19.60;99.90;;;;;;7403407;19;20376;-74
2023/06/07 03:32:40;;;;;;;5.80;3.10;;;19.70;99.90;;;;;;7403406;19;19962;-73
2023/06/07 03:35:07;;;;;;;6.47;3.60;;;19.70;99.90;;;;;;7400356;19;19922;-73
2023/06/07 03:37:33;;;;;;;5.22;3.20;;;19.70;99.90;;;;;;7405296;19;19919;-73
2023/06/07 03:39:58;;;;;;;7.68;3.67;;;19.70;99.90;;;;;;7383294;19;19949;-73
2023/06/07 03:42:24;;;;;;;6.10;3.30;;;19.60;99.90;;;;;;7403090;19;20042;-73
2023/06/07 03:44:50;;;;;;;6.20;3.28;;;19.60;99.90;;;;;;7405937;19;19934;-73
2023/06/07 03:47:15;;;;;;;7.65;3.25;;;19.60;99.90;;;;;;7403263;19;19933;-73
2023/06/07 03:49:42;;;;;;;6.18;3.28;;;19.60;99.90;;;;;;7403070;19;20436;-74
2023/06/07 03:52:07;;;;;;;7.25;3.65;;;19.50;99.90;;;;;;7403384;19;20026;-73
2023/06/07 03:54:33;;;;;;;6.65;3.30;;;19.50;99.90;;;;;;7405207;19;19930;-73
2023/06/07 03:56:59;;;;;;;5.68;3.38;;;19.50;99.90;;;;;;7404597;19;19925;-73
2023/06/07 03:59:26;;;;;;;5.88;3.30;;;19.50;99.90;;;;;;7403303;19;19911;-74
2023/06/07 04:01:51;;;;;;;;;;;19.50;99.90;;;;;;7404909;19;20363;-73
2023/06/07 04:04:17;;;;;;;7.85;3.67;;;19.50;99.90;;;;;;7402287;19;19918;-73
2023/06/07 04:06:43;;;;;;;6.45;3.03;;;19.60;99.90;;;;;;7403390;19;19933;-73
2023/06/07 04:09:09;;;;;;;6.60;3.40;;;19.50;99.90;;;;;;7401197;19;19914;-73
2023/06/07 04:11:35;;;;;;;4.85;3.17;;;19.50;99.90;;;;;;7404491;19;20259;-73
2023/06/07 04:14:00;;;;;;;6.00;3.30;;;19.50;99.90;;;;;;7403360;19;19911;-73
2023/06/07 04:16:26;;;;;;;5.65;3.38;;;19.60;99.90;;;;;;7403762;19;19926;-74
2023/06/07 04:18:52;;;;;;;7.47;3.30;;;19.60;99.90;;;;;;7403089;19;19926;-73
2023/06/07 04:21:17;;;;;;;4.78;2.42;;;19.50;99.90;;;;;;7370784;19;19995;-73
2023/06/07 04:23:43;;;;;;;6.13;2.88;;;19.60;99.90;;;;;;7404509;19;20288;-73
2023/06/07 04:26:09;;;;;;;6.10;3.10;;;19.60;99.90;;;;;;7400153;19;19922;-74
2023/06/07 04:28:35;;;;;;;6.28;2.80;;;19.60;99.90;;;;;;7404352;19;19924;-73
2023/06/07 04:31:02;;;;;;;6.18;3.25;;;19.70;99.90;;;;;;7404529;19;19982;-73
2023/06/07 04:33:27;;;;;;;5.78;2.78;;;19.80;99.90;;;;;;7401114;19;19922;-74
2023/06/07 04:35:57;;;;;;;7.10;3.70;;;19.80;99.90;;;;;;7401031;19;19955;-73
2023/06/07 04:38:23;;;;;;;7.07;3.30;;;19.90;99.90;;;;;;7401921;19;19932;-73
2023/06/07 04:40:49;;;;;;;7.88;3.13;;;20.00;99.90;;;;;;7402611;19;19928;-73
2023/06/07 04:43:20;;;;;;;6.68;3.40;;;20.00;99.90;;;;;;7349349;19;19951;-74
2023/06/07 04:45:54;;;;;;;7.60;3.42;;;20.00;99.90;;;;;;7403109;19;19917;-73
2023/06/07 04:48:25;;;;;;;5.88;3.42;;;20.10;99.90;;;;;;7401626;19;19986;-74
2023/06/07 04:50:52;;;;;;;5.13;2.88;;;20.20;99.90;;;;;;7403090;19;19911;-72
2023/06/07 04:53:21;;;;;;;7.25;3.42;;;20.30;99.90;;;;;;7400269;19;19911;-73
2023/06/07 04:55:48;;;;;;;5.85;3.00;;;20.40;99.90;;;;;;7401829;19;19922;-73
2023/06/07 04:58:18;;;;;;;5.40;3.00;;;20.40;99.90;;;;;;7401725;19;19942;-73
2023/06/07 05:00:47;;;;;;;5.43;2.65;;;20.50;99.90;;;;;;7401458;19;20232;-75
2023/06/07 05:03:21;;;;;;;5.30;2.97;;;20.50;99.80;;;;;;7401286;19;19915;-74
2023/06/07 05:05:48;;;;;;;7.40;3.33;;;20.50;99.90;;;;;;7398381;19;19927;-73
2023/06/07 05:08:14;;;;;;;7.43;3.28;;;20.50;99.90;;;;;;7400221;19;19922;-73
2023/06/07 05:10:41;;;;;;;5.55;2.95;;;20.50;99.90;;;;;;7403879;19;19911;-75
2023/06/07 05:13:07;;;;;;;8.27;3.47;;;20.50;99.80;;;;;;7401050;19;20000;-73
2023/06/07 05:15:33;;;;;;;8.48;3.97;;;20.50;99.90;;;;;;7402291;19;20345;-73
2023/06/07 05:18:00;;;;;;;7.45;4.47;;;20.50;99.90;;;;;;7404631;19;20006;-74
2023/06/07 05:20:27;;;;;;;6.60;3.20;;;20.50;99.90;;;;;;7403261;19;19914;-72
2023/06/07 05:22:53;;;;;;;9.13;5.03;;;20.60;99.50;;;;;;7404174;19;20006;-73
2023/06/07 05:25:19;;;;;;;6.15;3.88;;;20.70;99.20;;;;;;7367496;19;19967;-74
2023/06/07 05:27:45;;;;;;;5.80;2.83;;;20.80;98.70;;;;;;7401907;19;19919;-74
2023/06/07 05:30:11;;;;;;;5.45;2.70;;;20.90;97.90;;;;;;7400194;19;19919;-73
2023/06/07 05:32:37;;;;;;;6.30;2.75;;;20.90;97.70;;;;;;7402710;19;19939;-75
2023/06/07 05:35:04;;;;;;;7.53;3.25;;;21.00;97.50;;;;;;7394059;19;19919;-74
2023/06/07 05:37:30;;;;;;;7.43;2.80;;;21.00;97.50;;;;;;7401659;19;19925;-74
2023/06/07 05:39:57;;;;;;;7.50;3.38;;;21.10;97.20;;;;;;7400986;19;19923;-73
2023/06/07 05:42:23;;;;;;;7.15;3.05;;;21.10;96.80;;;;;;7368056;19;20414;-72
2023/06/07 05:44:49;;;;;;;6.07;3.33;;;21.20;96.60;;;;;;7399826;19;20415;-73
2023/06/07 05:47:25;;;;;;;8.15;3.50;;;21.20;96.60;;;;;;7396013;19;19918;-72
2023/06/07 05:49:51;;;;;;;6.40;3.22;;;21.30;96.50;;;;;;7402924;19;19910;-74
2023/06/07 05:52:17;;;;;;;;;;;21.30;96.20;;;;;;7399776;19;19914;-73
2023/06/07 05:54:50;;;;;;;6.15;3.60;;;21.30;96.00;;;;;;7401887;19;20330;-73
2023/06/07 05:57:17;;;;;;;5.55;3.08;;;21.30;95.90;;;;;;7401346;19;19918;-73
2023/06/07 05:59:43;;;;;;;6.68;3.38;;;21.40;95.60;;;;;;7402985;19;19915;-73
2023/06/07 06:02:09;;;;;;;5.20;3.33;;;21.40;95.50;;;;;;7396724;19;19922;-73
2023/06/07 06:04:34;;;;;;;8.55;3.80;;;21.40;95.00;;;;;;7403131;19;20242;-73
2023/06/07 06:07:00;;;;;;;5.10;3.45;;;21.30;95.20;;;;;;7401781;19;19936;-74
2023/06/07 06:09:27;;;;;;;5.30;2.50;;;21.50;95.10;;;;;;7399628;19;19911;-73
2023/06/07 06:11:53;;;;;;;6.00;2.70;;;21.40;94.70;;;;;;7402087;19;20344;-75
2023/06/07 06:14:20;;;;;;;5.10;2.80;;;21.40;94.70;;;;;;7400226;19;19922;-74
2023/06/07 06:16:46;;;;;;;8.07;3.28;;;21.40;94.70;;;;;;7402619;19;19945;-74
2023/06/07 06:19:12;;;;;;;6.22;2.67;;;21.50;95.00;;;;;;7401494;19;19914;-74
2023/06/07 06:21:38;;;;;;;4.68;2.30;;;21.60;94.30;;;;;;7402057;19;19938;-72
2023/06/07 06:24:04;;;;;;;4.70;2.70;;;21.70;94.10;;;;;;7401110;19;20287;-73
2023/06/07 06:26:30;;;;;;;6.63;3.17;;;21.70;94.50;;;;;;7396736;19;19915;-71
2023/06/07 06:28:58;;;;;;;6.55;3.40;;;21.70;94.00;;;;;;7402090;19;20364;-75
2023/06/07 06:31:24;;;;;;;5.95;3.40;;;21.90;93.40;;;;;;7399925;19;20652;-68
2023/06/07 06:33:50;;;;;;;8.93;3.80;;;21.90;93.80;;;;;;7398348;19;19925;-72
2023/06/07 06:36:17;;;;;;;6.75;3.42;;;21.90;94.30;;;;;;7398868;19;20306;-71
2023/06/07 06:38:44;;;;;;;6.82;3.70;;;21.70;94.20;;;;;;7400042;19;19930;-69
2023/06/07 06:41:10;;;;;;;8.30;3.15;;;21.80;94.20;;;;;;7397929;19;19943;-70
2023/06/07 06:43:36;;;;;;;10.88;3.72;;;21.80;93.90;;;;;;7401982;19;19970;-69
2023/06/07 06:46:01;;;;;;;8.32;2.90;;;21.90;93.80;;;;;;7397918;19;20013;-70
2023/06/07 06:48:27;;;;;;;7.07;3.17;;;21.80;93.60;;;;;;7367406;19;19922;-68
2023/06/07 06:50:53;;;;;;;8.07;3.53;;;21.80;93.90;;;;;;7400813;19;19951;-71
2023/06/07 06:53:19;;;;;;;10.32;3.75;;;21.70;94.20;;;;;;7396606;19;19911;-72
2023/06/07 06:55:45;;;;;;;7.55;3.72;;;21.80;94.10;;;;;;7397731;19;20307;-69
2023/06/07 06:58:11;;;;;;;10.88;3.90;;;21.90;94.00;;;;;;7396808;19;19919;-69
2023/06/07 07:00:40;;;;;;;7.10;3.20;;;22.00;93.90;;;;;;7402539;19;20429;-70
2023/06/07 07:03:06;;;;;;;12.10;4.03;;;22.10;93.70;;;;;;7384567;19;19918;-69
2023/06/07 07:05:32;;;;;;;8.27;4.00;;;22.10;93.60;;;;;;7403966;19;19911;-71
2023/06/07 07:07:58;;;;;;;7.95;4.30;;;22.10;94.00;;;;;;7406839;19;19918;-70
2023/06/07 07:10:24;;;;;;;7.93;3.95;;;22.10;93.10;;;;;;7401145;19;19911;-69
2023/06/07 07:12:50;;;;;;;6.55;3.78;;;22.20;93.40;;;;;;7405458;19;19919;-69
2023/06/07 07:15:16;;;;;;;7.45;4.10;;;22.30;92.70;;;;;;7403898;19;19911;-70
2023/06/07 07:17:46;;;;;;;7.55;3.92;;;22.10;92.90;;;;;;7403079;19;19911;-69
2023/06/07 07:20:12;;;;;;;7.40;3.97;;;22.20;92.50;;;;;;7370756;19;19945;-69
2023/06/07 07:22:38;;;;;;;25.58;5.57;;;22.10;92.80;;;;;;7404216;19;19911;-69
2023/06/07 07:25:05;;;;;;;8.90;4.47;;;22.20;92.60;;;;;;7402786;19;20372;-69
2023/06/07 07:27:31;;;;;;;10.45;4.72;;;22.20;92.60;;;;;;7405595;19;19918;-69
2023/06/07 07:29:57;;;;;;;7.40;3.90;;;22.20;92.60;;;;;;7401812;19;20375;-69
2023/06/07 07:32:23;;;;;;;8.07;4.10;;;22.30;92.30;;;;;;7391409;19;19923;-70
2023/06/07 07:34:49;;;;;;;6.60;4.10;;;22.20;92.20;;;;;;7381793;19;19925;-69
2023/06/07 07:37:15;;;;;;;9.30;4.18;;;22.30;92.10;;;;;;7364888;19;19936;-70
2023/06/07 07:39:40;;;;;;;8.50;3.30;;;22.40;92.10;;;;;;7367409;19;19914;-70
2023/06/07 07:42:07;;;;;;;9.02;4.28;;;22.50;91.80;;;;;;7380753;19;19935;-71
2023/06/07 07:44:34;;;;;;;9.65;4.20;;;22.50;91.90;;;;;;7368685;19;19937;-70
2023/06/07 07:47:00;;;;;;;10.65;4.97;;;22.40;91.40;;;;;;7382060;19;19914;-70
2023/06/07 07:49:26;;;;;;;7.55;4.13;;;22.20;91.70;;;;;;7359289;19;19918;-71
2023/06/07 07:51:51;;;;;;;9.50;4.00;;;22.10;92.30;;;;;;7369966;19;19911;-70
2023/06/07 07:54:17;;;;;;;8.38;4.15;;;22.30;92.00;;;;;;7372672;19;19918;-71
2023/06/07 07:56:43;;;;;;;9.70;3.90;;;22.30;92.10;;;;;;7375156;19;19915;-70
2023/06/07 07:59:10;;;;;;;9.20;4.45;;;22.50;91.70;;;;;;7363930;19;19955;-69
2023/06/07 08:01:36;;;;;;;;;;;22.70;91.30;;;;;;7368878;19;19938;-69
2023/06/07 08:04:02;;;;;;;9.57;3.72;;;22.90;90.60;;;;;;7364921;19;20563;-71
2023/06/07 08:06:27;;;;;;;8.10;4.15;;;23.00;90.30;;;;;;7361914;19;20097;-69
2023/06/07 08:08:53;;;;;;;8.48;5.53;;;23.10;90.10;;;;;;7368122;19;19938;-71
2023/06/07 08:11:21;;;;;;;11.82;6.97;;;23.10;90.40;;;;;;7339490;19;19917;-71
2023/06/07 08:13:47;;;;;;;10.95;6.65;;;23.00;90.90;;;;;;7367419;19;19914;-70
2023/06/07 08:16:13;;;;;;;14.85;6.82;;;23.10;90.80;;;;;;7365408;19;20771;-73
2023/06/07 08:18:39;;;;;;;12.90;6.75;;;23.20;90.70;;;;;;7376434;19;19947;-82
2023/06/07 08:21:05;;;;;;;12.27;6.13;;;23.10;90.80;;;;;;7367162;19;19923;-70
2023/06/07 08:23:31;;;;;;;10.25;6.13;;;23.30;91.20;;;;;;7371710;19;19911;-75
2023/06/07 08:26:02;;;;;;;11.45;5.63;;;23.50;91.00;;;;;;7388703;19;20477;-76
2023/06/07 08:28:28;;;;;;;11.98;6.43;;;23.70;90.70;;;;;;7378335;19;19961;-76
2023/06/07 08:30:55;;;;;;;13.23;6.07;;;23.80;90.40;;;;;;7377819;19;19941;-78
2023/06/07 08:33:21;;;;;;;19.35;6.07;;;24.00;90.10;;;;;;7388966;19;19919;-75
2023/06/07 08:35:47;;;;;;;9.23;5.05;;;24.30;88.90;;;;;;7372601;19;19919;-78
2023/06/07 08:38:13;;;;;;;9.38;5.60;;;24.30;89.20;;;;;;7372207;19;19933;-67
2023/06/07 08:40:39;;;;;;;12.93;6.07;;;24.60;88.60;;;;;;7367366;19;19911;-67
2023/06/07 08:43:07;;;;;;;11.90;5.25;;;24.70;87.10;;;;;;7362211;19;19915;-68
2023/06/07 08:45:33;;;;;;;9.75;5.05;;;24.70;87.30;;;;;;7364437;19;19919;-67
2023/06/07 08:48:06;;;;;;;9.10;4.43;;;24.90;86.60;;;;;;7330352;19;19922;-69
2023/06/07 08:50:33;;;;;;;8.20;4.63;;;25.20;85.10;;;;;;7359899;19;19914;-68
2023/06/07 08:53:07;;;;;;;9.75;4.25;;;25.20;84.10;;;;;;7365469;19;20352;-71
2023/06/07 08:55:34;;;;;;;11.63;5.35;;;25.30;83.70;;;;;;7378297;19;19929;-73
2023/06/07 08:58:00;;;;;;;10.88;6.03;;;25.10;83.70;;;;;;7361187;19;20357;-73
2023/06/07 09:00:26;;;;;;;10.88;5.85;;;24.70;83.20;;;;;;7382556;19;20328;-73
2023/06/07 09:02:55;;;;;;;9.48;5.28;;;24.50;84.30;;;;;;7363145;19;19915;-73
2023/06/07 09:05:22;;;;;;;9.18;4.70;;;24.40;85.30;;;;;;7358922;19;19922;-74
2023/06/07 09:07:49;;;;;;;9.60;5.07;;;24.10;86.00;;;;;;7342074;19;20722;-73
2023/06/07 09:10:17;;;;;;;6.93;4.25;;;23.90;85.50;;;;;;7363694;19;19910;-73
2023/06/07 09:12:47;;;;;;;9.88;4.32;;;24.00;85.50;;;;;;7368029;19;20343;-72
2023/06/07 09:15:21;;;;;;;8.35;4.50;;;23.90;85.20;;;;;;7365269;19;19919;-72
2023/06/07 09:17:55;;;;;;;10.70;4.68;;;23.90;84.60;;;;;;7383164;19;20276;-73
2023/06/07 09:20:23;;;;;;;10.32;3.55;;;24.00;84.00;;;;;;7361283;19;20402;-73
2023/06/07 09:23:16;;;;;;;9.10;4.00;;;23.80;84.00;;;;;;7361131;19;20362;-70
2023/06/07 09:25:44;;;;;;;6.80;3.33;;;23.90;84.30;;;;;;7367787;19;20031;-71
2023/06/07 09:28:13;;;;;;;7.57;3.75;;;24.00;83.70;;;;;;7364053;19;19968;-71
2023/06/07 09:30:54;;;;;;;7.10;3.40;;;23.90;83.50;;;;;;7363798;19;19925;-71
2023/06/07 09:33:31;;;;;;;8.27;3.25;;;24.00;83.10;;;;;;7358841;19;19926;-70
2023/06/07 09:36:06;;;;;;;6.70;3.03;;;24.30;82.30;;;;;;7373914;19;19978;-71
2023/06/07 09:38:33;;;;;;;8.25;3.05;;;24.30;82.10;;;;;;7362417;19;21862;-71
2023/06/07 09:41:00;;;;;;;9.90;3.00;;;24.20;82.40;;;;;;7372821;19;19914;-71
2023/06/07 09:43:26;;;;;;;5.55;2.92;;;24.30;80.30;;;;;;7369267;19;19954;-71
2023/06/07 09:45:56;;;;;;;6.85;2.72;;;24.30;80.70;;;;;;7369267;19;20387;-70
2023/06/07 09:48:22;;;;;;;7.03;2.90;;;24.70;79.80;;;;;;7363279;19;20010;-70
2023/06/07 09:50:58;;;;;;;;;;;24.90;78.90;;;;;;7365332;19;19922;-70
2023/06/07 09:53:24;;;;;;;8.50;3.13;;;25.20;77.40;;;;;;7376661;19;19910;-70
2023/06/07 09:55:50;;;;;;;6.07;2.47;;;24.80;76.60;;;;;;7359111;19;19925;-69
2023/06/07 09:58:20;;;;;;;6.25;2.55;;;24.90;76.30;;;;;;7363561;19;19919;-69
2023/06/07 10:00:46;;;;;;;5.88;2.67;;;24.70;76.10;;;;;;7362826;19;19914;-69
2023/06/07 10:03:12;;;;;;;7.28;3.08;;;24.40;78.00;;;;;;7373691;19;19973;-70
2023/06/07 10:05:41;;;;;;;5.95;3.00;;;24.60;77.10;;;;;;7370828;19;19919;-70
2023/06/07 10:08:08;;;;;;;7.63;2.90;;;24.70;77.40;;;;;;7355163;19;19925;-68
2023/06/07 10:10:35;;;;;;;8.27;3.05;;;24.50;77.90;;;;;;7369697;19;19910;-69
2023/06/07 10:13:05;;;;;;;7.10;3.08;;;24.60;78.00;;;;;;7378999;19;19947;-71
2023/06/07 10:15:33;;;;;;;7.28;2.60;;;25.00;77.50;;;;;;7354554;19;19907;-71
2023/06/07 10:18:19;;;;;;;6.57;3.38;;;25.60;76.00;;;;;;7376474;19;19915;-70
2023/06/07 10:20:55;;;;;;;7.60;2.63;;;24.80;77.30;;;;;;7372131;19;19915;-69
2023/06/07 10:23:33;;;;;;;8.52;3.28;;;24.60;78.60;;;;;;7367546;19;20494;-70
2023/06/07 10:26:06;;;;;;;9.13;2.95;;;24.30;80.00;;;;;;7357619;19;19926;-70
2023/06/07 10:28:40;;;;;;;5.40;2.88;;;24.20;80.50;;;;;;7369386;19;19918;-70
2023/06/07 10:31:11;;;;;;;7.15;3.03;;;24.30;78.80;;;;;;7372666;19;21466;-70
2023/06/07 10:33:38;;;;;;;5.88;2.60;;;24.40;78.00;;;;;;7372882;19;19914;-69
2023/06/07 10:36:08;;;;;;;8.88;2.92;;;24.30;78.20;;;;;;7371162;19;19921;-69
2023/06/07 10:38:34;;;;;;;8.15;2.80;;;24.20;78.60;;;;;;7361489;19;19982;-69
2023/06/07 10:41:03;;;;;;;11.27;3.33;;;24.60;77.40;;;;;;7339199;19;20267;-70
2023/06/07 10:43:31;;;;;;;6.95;2.97;;;24.90;77.80;;;;;;7367863;19;19925;-70
2023/06/07 10:46:24;;;;;;;5.43;3.00;;;25.00;78.30;;;;;;7376336;19;19910;-70
2023/06/07 10:48:52;;;;;;;6.43;3.22;;;25.00;78.30;;;;;;7363906;19;20564;-71
2023/06/07 10:51:38;;;;;;;5.88;3.30;;;24.60;78.90;;;;;;7371857;19;20841;-70
2023/06/07 10:54:04;;;;;;;5.97;3.38;;;24.90;78.60;;;;;;7361197;19;19921;-70
2023/06/07 10:56:32;;;;;;;8.88;2.85;;;25.00;78.10;;;;;;7371688;19;19918;-71
2023/06/07 10:59:16;;;;;;;5.20;2.65;;;25.10;77.60;;;;;;7351030;19;19918;-70
2023/06/07 11:01:54;;;;;;;4.93;2.75;;;25.70;76.10;;;;;;7372682;19;19931;-69
2023/06/07 11:04:37;;;;;;;12.98;2.95;;;26.20;74.90;;;;;;7366341;19;19993;-70
2023/06/07 11:07:20;;;;;;;6.00;2.67;;;26.40;73.50;;;;;;7357881;19;19918;-70
2023/06/07 11:09:48;;;;;;;6.45;2.60;;;26.10;73.40;;;;;;7371080;19;19915;-70
2023/06/07 11:12:35;;;;;;;6.45;2.50;;;26.10;74.00;;;;;;7362446;19;19934;-71
2023/06/07 11:15:20;;;;;;;6.57;2.78;;;25.10;75.40;;;;;;7373078;19;19919;-69
2023/06/07 11:17:56;;;;;;;9.70;3.97;;;24.90;77.20;;;;;;7368512;19;19988;-71
2023/06/07 11:20:40;;;;;;;6.90;3.75;;;25.10;77.20;;;;;;7359190;19;20394;-71
2023/06/07 11:23:31;;;;;;;5.32;2.50;;;25.20;77.20;;;;;;7364179;19;19914;-69
2023/06/07 11:26:11;;;;;;;10.82;3.72;;;26.00;75.60;;;;;;7357874;19;19922;-71
2023/06/07 11:28:41;;;;;;;6.55;2.60;;;26.30;74.60;;;;;;7388495;19;20346;-70
2023/06/07 11:31:13;;;;;;;9.30;3.38;;;26.80;73.00;;;;;;7388913;19;19994;-69
2023/06/07 11:33:42;;;;;;;;;;;26.90;72.40;;;;;;7376055;19;19918;-70
2023/06/07 11:36:11;;;;;;;7.00;3.70;;;26.20;74.40;;;;;;7358193;19;20014;-70
2023/06/07 11:38:38;;;;;;;7.10;2.72;;;26.20;75.00;;;;;;7365172;19;20275;-71
2023/06/07 11:41:06;;;;;;;8.45;3.42;;;26.10;75.70;;;;;;7370742;19;19922;-70
2023/06/07 11:43:31;;;;;;;6.03;2.78;;;26.30;75.10;;;;;;7375628;19;19928;-71
2023/06/07 11:45:58;;;;;;;7.15;3.40;;;25.70;75.50;;;;;;7383238;19;20258;-70
2023/06/07 11:48:28;;;;;;;5.68;3.58;;;26.00;75.40;;;;;;7369723;19;20333;-70
2023/06/07 11:50:54;;;;;;;6.05;3.95;;;25.90;75.50;;;;;;7367273;19;19982;-71
2023/06/07 11:53:21;;;;;;;5.50;2.83;;;25.50;75.70;;;;;;7368095;19;19918;-72
2023/06/07 11:55:47;;;;;;;6.55;3.90;;;25.80;75.90;;;;;;7371969;19;20355;-71
2023/06/07 11:58:13;;;;;;;6.55;3.75;;;25.90;75.60;;;;;;7379443;19;19926;-73
2023/06/07 12:00:42;;;;;;;5.88;3.88;;;26.20;74.80;;;;;;7378453;19;19910;-73
2023/06/07 12:03:10;;;;;;;6.20;2.70;;;26.10;74.60;;;;;;7393428;19;19925;-71
2023/06/07 12:05:36;;;;;;;4.85;3.28;;;26.10;73.80;;;;;;7403150;19;19922;-72
2023/06/07 12:08:08;;;;;;;7.13;3.53;;;25.70;75.20;;;;;;7404469;19;19921;-72
2023/06/07 12:10:38;;;;;;;6.10;2.70;;;25.80;75.20;;;;;;7403006;19;19930;-72
2023/06/07 12:13:16;;;;;;;7.03;3.38;;;26.10;75.10;;;;;;7403817;19;19918;-71
2023/06/07 12:15:44;;;;;;;5.22;3.47;;;26.40;73.00;;;;;;7403304;19;19915;-71
2023/06/07 12:18:18;;;;;;;6.72;3.58;;;25.80;73.90;;;;;;7403476;19;19922;-72
2023/06/07 12:20:48;;;;;;;8.35;3.70;;;25.70;74.80;;;;;;7405429;19;19930;-73
2023/06/07 12:23:20;;;;;;;6.82;3.55;;;26.00;74.10;;;;;;7401668;19;19914;-72
2023/06/07 12:25:45;;;;;;;6.50;3.67;;;26.10;73.80;;;;;;7406864;19;19929;-72
2023/06/07 12:28:12;;;;;;;6.22;3.42;;;26.00;74.40;;;;;;7373649;19;19914;-72
2023/06/07 12:30:40;;;;;;;5.00;3.17;;;26.20;72.40;;;;;;7406036;19;19918;-71
2023/06/07 12:33:16;;;;;;;8.15;3.60;;;25.50;74.80;;;;;;7403514;19;19925;-71
2023/06/07 12:35:50;;;;;;;7.05;3.33;;;25.70;75.40;;;;;;7404967;19;19919;-72
2023/06/07 12:38:20;;;;;;;8.60;3.03;;;25.60;76.20;;;;;;7402928;19;19929;-71
2023/06/07 12:40:46;;;;;;;4.95;3.92;;;25.90;74.80;;;;;;7402504;19;19943;-72
2023/06/07 12:43:12;;;;;;;5.15;3.28;;;26.00;74.10;;;;;;7404296;19;19948;-71
2023/06/07 12:45:38;;;;;;;7.40;4.03;;;25.90;74.50;;;;;;7403986;19;19929;-72
2023/06/07 12:48:04;;;;;;;6.63;3.60;;;25.80;75.40;;;;;;7401440;19;19922;-71
2023/06/07 12:50:30;;;;;;;5.22;3.83;;;25.90;74.70;;;;;;7400639;19;20001;-73
2023/06/07 12:52:56;;;;;;;6.90;3.63;;;26.10;74.00;;;;;;7403523;19;19935;-73